createdAt,value
2023-01-25T00:00:51.734Z,1.42
2023-01-25T00:03:18.876Z,1.10
2023-01-25T00:05:46.137Z,1.27
2023-01-25T00:08:13.265Z,1.10
2023-01-25T00:10:40.276Z,1.30
2023-01-25T00:13:07.344Z,1.00
2023-01-25T00:15:34.410Z,1.17
2023-01-25T00:18:01.468Z,0.93
2023-01-25T00:20:28.533Z,1.05
2023-01-25T00:22:55.609Z,0.82
2023-01-25T00:25:22.660Z,0.88
2023-01-25T00:27:49.883Z,0.90
2023-01-25T00:30:17.369Z,1.15
2023-01-25T00:32:53.586Z,1.10
2023-01-25T00:35:21.927Z,0.70
2023-01-25T00:37:52.841Z,0.85
2023-01-25T00:40:20.034Z,0.93
2023-01-25T00:42:47.083Z,1.05
2023-01-25T00:45:14.326Z,1.10
2023-01-25T00:47:42.147Z,1.00
2023-01-25T00:50:09.808Z,1.00
2023-01-25T00:52:36.930Z,0.90
2023-01-25T00:55:04.379Z,1.42
2023-01-25T00:57:31.468Z,0.93
2023-01-25T00:59:58.566Z,0.80
2023-01-25T01:02:25.649Z,0.82
2023-01-25T01:04:52.749Z,1.10
2023-01-25T01:07:20.318Z,0.90
2023-01-25T01:09:47.438Z,0.90
2023-01-25T01:12:14.501Z,0.82
2023-01-25T01:14:41.678Z,0.93
2023-01-25T01:17:08.761Z,1.00
2023-01-25T01:19:35.836Z,1.00
2023-01-25T01:22:03.008Z,0.90
2023-01-25T01:24:30.201Z,1.00
2023-01-25T01:26:57.377Z,0.80
2023-01-25T01:29:24.614Z,1.08
2023-01-25T01:31:52.837Z,1.17
2023-01-25T01:34:20.467Z,0.80
2023-01-25T01:36:47.530Z,0.63
2023-01-25T01:39:14.829Z,1.05
2023-01-25T01:41:41.973Z,0.75
2023-01-25T01:44:20.963Z,0.95
2023-01-25T01:46:54.703Z,0.82
2023-01-25T01:49:28.209Z,1.15
2023-01-25T01:52:05.896Z,1.33
2023-01-25T01:54:43.246Z,1.17
2023-01-25T01:57:15.126Z,0.90
2023-01-25T01:59:51.427Z,1.10
2023-01-25T02:02:18.512Z,0.90
2023-01-25T02:04:49.141Z,1.30
2023-01-25T02:07:24.242Z,0.80
2023-01-25T02:09:52.297Z,0.73
2023-01-25T02:12:22.319Z,1.08
2023-01-25T02:14:51.244Z,1.00
2023-01-25T02:17:27.201Z,1.10
2023-01-25T02:20:11.738Z,1.00
2023-01-25T02:22:53.771Z,0.70
2023-01-25T02:25:21.536Z,0.98
2023-01-25T02:28:02.824Z,0.90
2023-01-25T02:30:29.941Z,0.73
2023-01-25T02:32:56.967Z,1.00
2023-01-25T02:35:49.187Z,1.10
2023-01-25T02:38:18.845Z,0.88
2023-01-25T02:40:49.985Z,1.00
2023-01-25T02:43:17.957Z,0.70
2023-01-25T02:45:49.849Z,1.00
2023-01-25T02:48:16.943Z,1.02
2023-01-25T02:50:44.086Z,0.98
2023-01-25T02:53:11.213Z,0.80
2023-01-25T02:55:38.285Z,1.17
2023-01-25T02:58:05.389Z,0.88
2023-01-25T03:00:32.540Z,1.08
2023-01-25T03:02:59.908Z,0.80
2023-01-25T03:05:27.278Z,0.70
2023-01-25T03:07:54.416Z,1.15
2023-01-25T03:10:21.535Z,1.05
2023-01-25T03:12:48.587Z,0.80
2023-01-25T03:15:15.720Z,0.98
2023-01-25T03:17:42.730Z,1.13
2023-01-25T03:20:10.476Z,0.90
2023-01-25T03:22:37.612Z,0.88
2023-01-25T03:25:04.949Z,0.90
2023-01-25T03:27:32.076Z,0.88
2023-01-25T03:29:59.208Z,1.10
2023-01-25T03:32:26.267Z,0.73
2023-01-25T03:34:53.516Z,1.08
2023-01-25T03:37:21.122Z,1.13
2023-01-25T03:39:48.198Z,0.98
2023-01-25T03:42:15.586Z,1.00
2023-01-25T03:44:42.969Z,1.15
2023-01-25T03:47:10.045Z,0.80
2023-01-25T03:49:37.235Z,0.80
2023-01-25T03:52:04.807Z,1.23
2023-01-25T03:54:32.079Z,1.33
2023-01-25T03:56:59.285Z,0.88
2023-01-25T03:59:26.599Z,0.90
2023-01-25T04:01:53.934Z,0.80
2023-01-25T04:04:21.124Z,0.77
2023-01-25T04:06:48.251Z,0.85
2023-01-25T04:09:15.385Z,0.75
2023-01-25T04:11:42.468Z,0.90
2023-01-25T04:14:11.104Z,0.82
2023-01-25T04:16:38.251Z,1.10
2023-01-25T04:19:05.328Z,1.00
2023-01-25T04:21:32.593Z,0.70
2023-01-25T04:23:59.732Z,0.82
2023-01-25T04:26:26.841Z,0.80
2023-01-25T04:28:53.944Z,0.90
2023-01-25T04:31:21.059Z,1.00
2023-01-25T04:33:50.089Z,0.70
2023-01-25T04:36:17.747Z,0.88
2023-01-25T04:38:44.863Z,0.80
2023-01-25T04:41:11.869Z,0.70
2023-01-25T04:43:39.202Z,1.20
2023-01-25T04:46:06.297Z,1.08
2023-01-25T04:48:33.981Z,1.20
2023-01-25T04:51:01.115Z,0.98
2023-01-25T04:53:28.111Z,1.20
2023-01-25T04:55:55.286Z,1.10
2023-01-25T04:58:22.448Z,0.90
2023-01-25T05:00:49.568Z,0.98
2023-01-25T05:03:16.784Z,1.17
2023-01-25T05:05:48.169Z,1.10
2023-01-25T05:08:15.377Z,0.90
2023-01-25T05:10:42.412Z,0.90
2023-01-25T05:13:09.515Z,1.10
2023-01-25T05:15:37.245Z,0.90
2023-01-25T05:18:04.701Z,0.80
2023-01-25T05:20:31.739Z,1.20
2023-01-25T05:22:59.206Z,1.02
2023-01-25T05:25:44.952Z,0.80
2023-01-25T05:28:12.003Z,0.75
2023-01-25T05:30:39.083Z,1.00
2023-01-25T05:33:06.229Z,0.70
2023-01-25T05:35:33.304Z,0.75
2023-01-25T05:38:00.596Z,0.75
2023-01-25T05:40:27.937Z,0.93
2023-01-25T05:43:00.099Z,0.70
2023-01-25T05:45:27.235Z,0.80
2023-01-25T05:47:55.597Z,1.23
2023-01-25T05:50:23.727Z,0.90
2023-01-25T05:52:51.052Z,0.88
2023-01-25T05:55:18.422Z,0.80
2023-01-25T05:57:45.545Z,0.82
2023-01-25T06:00:13.356Z,0.90
2023-01-25T06:02:40.655Z,1.02
2023-01-25T06:05:08.940Z,0.60
2023-01-25T06:07:36.962Z,0.90
2023-01-25T06:10:05.406Z,0.80
2023-01-25T06:12:33.689Z,1.00
2023-01-25T06:15:00.814Z,0.90
2023-01-25T06:17:27.879Z,0.80
2023-01-25T06:19:54.891Z,1.00
2023-01-25T06:22:21.965Z,0.90
2023-01-25T06:24:49.092Z,0.73
2023-01-25T06:27:16.156Z,0.85
2023-01-25T06:29:44.073Z,1.40
2023-01-25T06:32:11.153Z,1.25
2023-01-25T06:34:38.364Z,1.10
2023-01-25T06:37:05.746Z,1.50
2023-01-25T06:39:32.857Z,1.10
2023-01-25T06:41:59.958Z,1.00
2023-01-25T06:44:27.098Z,1.10
2023-01-25T06:46:54.248Z,1.20
2023-01-25T06:49:21.494Z,1.20
2023-01-25T06:51:48.594Z,1.58
2023-01-25T06:54:15.668Z,1.20
2023-01-25T06:56:42.687Z,1.20
2023-01-25T06:59:09.832Z,1.00
2023-01-25T07:01:37.894Z,1.40
2023-01-25T07:04:05.497Z,1.02
2023-01-25T07:06:36.491Z,1.10
2023-01-25T07:09:14.690Z,0.90
2023-01-25T07:11:41.794Z,1.00
2023-01-25T07:14:08.924Z,1.10
2023-01-25T07:16:39.434Z,0.98
2023-01-25T07:19:07.946Z,1.10
2023-01-25T07:21:35.154Z,0.90
2023-01-25T07:24:04.242Z,1.10
2023-01-25T07:26:32.010Z,1.23
2023-01-25T07:28:59.866Z,1.10
2023-01-25T07:31:27.305Z,1.10
2023-01-25T07:33:57.667Z,0.90
2023-01-25T07:36:25.607Z,0.90
2023-01-25T07:38:57.490Z,0.70
2023-01-25T07:41:26.164Z,0.90
2023-01-25T07:43:53.939Z,1.25
2023-01-25T07:46:23.009Z,1.20
2023-01-25T07:48:52.406Z,0.90
2023-01-25T07:51:24.591Z,1.00
2023-01-25T07:53:54.358Z,0.90
2023-01-25T07:56:23.769Z,1.02
2023-01-25T07:58:54.307Z,1.00
2023-01-25T08:01:23.619Z,1.10
2023-01-25T08:03:51.487Z,1.00
2023-01-25T08:06:23.324Z,1.10
2023-01-25T08:08:50.603Z,0.98
2023-01-25T08:11:20.887Z,1.50
2023-01-25T08:13:50.089Z,1.17
2023-01-25T08:16:22.166Z,1.17
2023-01-25T08:18:50.788Z,1.30
2023-01-25T08:21:18.160Z,1.45
2023-01-25T08:23:45.437Z,1.73
2023-01-25T08:26:14.896Z,1.33
2023-01-25T08:28:41.925Z,1.10
2023-01-25T08:31:19.037Z,1.17
2023-01-25T08:33:47.188Z,1.13
2023-01-25T08:36:15.772Z,1.45
2023-01-25T08:38:43.247Z,1.50
2023-01-25T08:41:18.711Z,1.77
2023-01-25T08:43:46.841Z,1.30
2023-01-25T08:46:15.999Z,1.13
2023-01-25T08:48:43.601Z,0.95
2023-01-25T08:51:15.701Z,1.15
2023-01-25T08:53:43.197Z,1.23
2023-01-25T08:56:13.042Z,1.25
2023-01-25T08:58:43.158Z,1.27
2023-01-25T09:01:12.382Z,1.33
2023-01-25T09:03:41.626Z,1.20
2023-01-25T09:06:10.275Z,1.30
2023-01-25T09:08:40.504Z,1.60
2023-01-25T09:11:14.708Z,1.02
2023-01-25T09:13:43.999Z,1.27
2023-01-25T09:16:16.962Z,1.50
2023-01-25T09:18:45.493Z,1.50
2023-01-25T09:21:15.220Z,1.20
2023-01-25T09:23:51.565Z,1.30
2023-01-25T09:26:32.518Z,1.17
2023-01-25T09:28:59.853Z,1.42
2023-01-25T09:31:28.001Z,1.30
2023-01-25T09:33:55.929Z,1.30
2023-01-25T09:36:26.395Z,1.10
2023-01-25T09:38:53.940Z,1.40
2023-01-25T09:42:00.710Z,1.08
2023-01-25T09:45:10.112Z,1.48
2023-01-25T09:47:40.071Z,1.30
2023-01-25T09:50:40.691Z,1.17
2023-01-25T09:53:25.358Z,1.40
2023-01-25T09:55:56.146Z,1.35
2023-01-25T09:58:29.731Z,1.20
2023-01-25T10:01:14.025Z,1.13
2023-01-25T10:03:52.769Z,1.10
2023-01-25T10:06:23.994Z,0.98
2023-01-25T10:09:27.713Z,1.17
2023-01-25T10:11:54.804Z,1.10
2023-01-25T10:14:22.492Z,1.30
2023-01-25T10:16:52.610Z,1.30
2023-01-25T10:19:28.690Z,1.42
2023-01-25T10:22:11.603Z,1.48
2023-01-25T10:24:53.511Z,1.42
2023-01-25T10:27:57.309Z,1.50
2023-01-25T10:30:31.011Z,1.75
2023-01-25T10:33:07.946Z,1.38
2023-01-25T10:35:42.582Z,1.25
2023-01-25T10:38:14.428Z,1.23
2023-01-25T10:40:57.335Z,1.00
2023-01-25T10:43:24.517Z,1.50
2023-01-25T10:45:52.080Z,1.55
2023-01-25T10:48:31.426Z,1.10
2023-01-25T10:50:58.608Z,1.10
2023-01-25T10:53:27.530Z,1.40
2023-01-25T10:56:03.822Z,1.70
2023-01-25T10:58:41.734Z,1.48
2023-01-25T11:01:13.386Z,1.40
2023-01-25T11:03:47.607Z,1.50
2023-01-25T11:06:14.698Z,1.30
2023-01-25T11:08:43.435Z,1.45
2023-01-25T11:11:33.553Z,1.25
2023-01-25T11:14:00.770Z,0.90
2023-01-25T11:16:33.878Z,1.50
2023-01-25T11:19:03.098Z,1.60
2023-01-25T11:21:35.119Z,1.50
2023-01-25T11:24:07.230Z,1.40
2023-01-25T11:26:38.215Z,1.38
2023-01-25T11:29:24.296Z,1.40
2023-01-25T11:31:55.625Z,1.40
2023-01-25T11:34:27.008Z,1.65
2023-01-25T11:37:18.491Z,1.48
2023-01-25T11:39:48.280Z,1.50
2023-01-25T11:42:30.613Z,1.25
2023-01-25T11:45:09.626Z,1.83
2023-01-25T11:48:07.636Z,1.70
2023-01-25T11:50:42.411Z,1.40
2023-01-25T11:53:38.772Z,1.48
2023-01-25T11:56:30.027Z,1.50
2023-01-25T11:59:12.350Z,1.45
2023-01-25T12:02:13.341Z,2.03
2023-01-25T12:05:06.353Z,1.33
2023-01-25T12:07:57.836Z,1.65
2023-01-25T12:11:12.614Z,1.27
2023-01-25T12:13:57.362Z,1.13
2023-01-25T12:16:27.442Z,1.48
2023-01-25T12:19:22.214Z,1.73
2023-01-25T12:22:26.803Z,1.73
2023-01-25T12:25:03.900Z,1.38
2023-01-25T12:27:53.471Z,1.50
2023-01-25T12:30:34.679Z,1.30
2023-01-25T12:33:15.860Z,1.48
2023-01-25T12:35:50.094Z,1.25
2023-01-25T12:38:28.627Z,1.10
2023-01-25T12:41:16.051Z,1.60
2023-01-25T12:43:49.788Z,1.30
2023-01-25T12:46:35.397Z,1.30
2023-01-25T12:49:12.455Z,1.92
2023-01-25T12:51:42.531Z,1.30
2023-01-25T12:54:48.964Z,1.48
2023-01-25T12:57:25.823Z,2.67
2023-01-25T13:00:10.459Z,1.30
2023-01-25T13:03:01.749Z,1.40
2023-01-25T13:05:37.844Z,1.85
2023-01-25T13:08:30.878Z,1.60
2023-01-25T13:11:16.692Z,1.00
2023-01-25T13:13:43.895Z,1.60
2023-01-25T13:17:01.451Z,1.60
2023-01-25T13:19:31.979Z,1.42
2023-01-25T13:22:00.575Z,1.30
2023-01-25T13:24:34.760Z,1.30
2023-01-25T13:27:03.495Z,1.33
2023-01-25T13:29:36.696Z,1.50
2023-01-25T13:32:05.447Z,1.33
2023-01-25T13:34:39.509Z,1.50
2023-01-25T13:37:29.490Z,1.40
2023-01-25T13:40:07.352Z,2.03
2023-01-25T13:42:37.266Z,1.42
2023-01-25T13:45:19.335Z,1.25
2023-01-25T13:48:06.079Z,1.33
2023-01-25T13:50:40.298Z,1.70
2023-01-25T13:53:21.078Z,1.38
2023-01-25T13:55:53.998Z,1.70
2023-01-25T13:58:24.868Z,1.43
2023-01-25T14:01:08.509Z,1.60
2023-01-25T14:03:37.101Z,1.50
2023-01-25T14:06:04.642Z,1.42
2023-01-25T14:08:32.119Z,1.60
2023-01-25T14:10:59.876Z,1.50
2023-01-25T14:13:26.973Z,1.55
2023-01-25T14:16:01.762Z,1.40
2023-01-25T14:18:32.372Z,1.95
2023-01-25T14:21:25.970Z,1.50
2023-01-25T14:23:53.189Z,1.50
2023-01-25T14:26:25.840Z,1.60
2023-01-25T14:29:01.686Z,1.40
2023-01-25T14:31:37.137Z,1.35
2023-01-25T14:34:05.274Z,1.40
2023-01-25T14:36:34.873Z,1.95
2023-01-25T14:39:04.583Z,1.65
2023-01-25T14:41:48.795Z,1.30
2023-01-25T14:44:23.223Z,1.50
2023-01-25T14:46:50.673Z,1.80
2023-01-25T14:49:26.550Z,1.77
2023-01-25T14:52:10.609Z,1.75
2023-01-25T14:54:58.978Z,1.88
2023-01-25T14:57:38.316Z,1.75
2023-01-25T15:00:07.492Z,1.58
2023-01-25T15:02:57.075Z,1.55
2023-01-25T15:05:28.469Z,1.60
2023-01-25T15:08:15.959Z,1.30
2023-01-25T15:10:56.071Z,1.40
2023-01-25T15:13:26.218Z,1.50
2023-01-25T15:16:01.867Z,1.40
2023-01-25T15:18:43.914Z,1.65
2023-01-25T15:21:17.974Z,1.40
2023-01-25T15:23:47.690Z,1.55
2023-01-25T15:26:21.796Z,1.50
2023-01-25T15:28:50.553Z,1.85
2023-01-25T15:31:38.215Z,1.42
2023-01-25T15:34:06.191Z,1.80
2023-01-25T15:36:33.868Z,1.38
2023-01-25T15:39:01.092Z,1.58
2023-01-25T15:41:28.158Z,1.35
2023-01-25T15:43:55.227Z,1.48
2023-01-25T15:46:23.638Z,1.60
2023-01-25T15:48:51.938Z,1.40
2023-01-25T15:51:19.964Z,1.83
2023-01-25T15:53:47.323Z,1.40
2023-01-25T15:56:16.095Z,1.40
2023-01-25T15:58:47.575Z,1.50
2023-01-25T16:01:14.747Z,1.40
2023-01-25T16:03:42.249Z,1.67
2023-01-25T16:06:28.743Z,1.20
2023-01-25T16:08:56.086Z,1.40
2023-01-25T16:11:23.169Z,1.65
2023-01-25T16:13:50.316Z,1.70
2023-01-25T16:16:23.616Z,1.90
2023-01-25T16:18:51.035Z,1.92
2023-01-25T16:21:18.365Z,1.45
2023-01-25T16:23:45.678Z,1.65
2023-01-25T16:26:25.699Z,1.38
2023-01-25T16:28:52.896Z,1.80
2023-01-25T16:31:31.776Z,1.40
2023-01-25T16:34:01.044Z,1.73
2023-01-25T16:36:28.500Z,1.50
2023-01-25T16:38:55.748Z,1.60
2023-01-25T16:41:22.966Z,1.20
2023-01-25T16:43:50.278Z,1.70
2023-01-25T16:46:23.637Z,1.65
2023-01-25T16:48:52.733Z,1.60
2023-01-25T16:51:25.965Z,1.42
2023-01-25T16:53:55.841Z,1.75
2023-01-25T16:56:28.126Z,1.63
2023-01-25T16:58:57.686Z,1.90
2023-01-25T17:01:25.619Z,1.60
2023-01-25T17:03:52.933Z,1.60
2023-01-25T17:06:21.218Z,1.50
2023-01-25T17:08:49.790Z,1.60
2023-01-25T17:11:21.877Z,1.63
2023-01-25T17:13:54.731Z,1.60
2023-01-25T17:16:23.678Z,1.47
2023-01-25T17:18:59.035Z,1.48
2023-01-25T17:21:27.146Z,2.00
2023-01-25T17:23:56.010Z,1.50
2023-01-25T17:26:24.526Z,1.40
2023-01-25T17:28:52.058Z,1.55
2023-01-25T17:31:24.892Z,1.60
2023-01-25T17:33:53.534Z,1.50
2023-01-25T17:36:20.801Z,1.70
2023-01-25T17:38:48.447Z,1.25
2023-01-25T17:41:17.387Z,1.50
2023-01-25T17:43:44.600Z,1.60
2023-01-25T17:46:26.191Z,1.60
2023-01-25T17:48:53.951Z,1.40
2023-01-25T17:51:23.406Z,1.65
2023-01-25T17:53:51.802Z,1.42
2023-01-25T17:56:19.520Z,1.40
2023-01-25T17:58:46.744Z,1.60
2023-01-25T18:01:16.519Z,1.60
2023-01-25T18:03:44.827Z,1.38
2023-01-25T18:06:17.015Z,1.75
2023-01-25T18:08:49.034Z,1.42
2023-01-25T18:11:22.322Z,1.40
2023-01-25T18:13:52.253Z,1.45
2023-01-25T18:16:23.464Z,1.38
2023-01-25T18:18:52.437Z,1.60
2023-01-25T18:21:24.522Z,1.23
2023-01-25T18:23:54.389Z,1.30
2023-01-25T18:26:24.924Z,1.35
2023-01-25T18:28:55.600Z,1.40
2023-01-25T18:31:22.918Z,1.58
2023-01-25T18:33:50.337Z,1.50
2023-01-25T18:36:19.479Z,1.40
2023-01-25T18:38:46.963Z,1.65
2023-01-25T18:41:14.184Z,1.40
2023-01-25T18:43:41.252Z,1.35
2023-01-25T18:46:09.092Z,1.58
2023-01-25T18:48:36.588Z,1.20
2023-01-25T18:51:23.401Z,1.50
2023-01-25T18:53:51.489Z,1.80
2023-01-25T18:56:21.156Z,1.23
2023-01-25T18:58:48.740Z,1.70
2023-01-25T19:01:21.141Z,1.40
2023-01-25T19:03:49.697Z,1.55
2023-01-25T19:06:17.528Z,1.73
2023-01-25T19:08:49.899Z,1.40
2023-01-25T19:11:20.239Z,1.85
2023-01-25T19:13:47.353Z,1.60
2023-01-25T19:16:15.848Z,1.30
2023-01-25T19:18:48.161Z,1.30
2023-01-25T19:21:17.132Z,1.30
2023-01-25T19:23:44.578Z,1.25
2023-01-25T19:26:14.313Z,1.23
2023-01-25T19:28:43.784Z,1.55
2023-01-25T19:31:16.803Z,1.65
2023-01-25T19:33:45.080Z,1.30
2023-01-25T19:36:16.876Z,1.45
2023-01-25T19:38:44.492Z,1.20
2023-01-25T19:41:14.784Z,1.52
2023-01-25T19:43:42.256Z,1.10
2023-01-25T19:46:20.819Z,1.58
2023-01-25T19:48:50.229Z,1.48
2023-01-25T19:51:28.265Z,1.40
2023-01-25T19:54:01.084Z,1.30
2023-01-25T19:56:30.123Z,1.52
2023-01-25T19:58:57.492Z,1.60
2023-01-25T20:01:29.312Z,1.30
2023-01-25T20:03:58.486Z,1.40
2023-01-25T20:06:26.864Z,1.38
2023-01-25T20:08:54.570Z,1.30
2023-01-25T20:11:30.425Z,1.67
2023-01-25T20:14:00.096Z,1.20
2023-01-25T20:16:28.151Z,1.10
2023-01-25T20:18:57.145Z,1.35
2023-01-25T20:21:26.075Z,1.90
2023-01-25T20:23:57.398Z,1.30
2023-01-25T20:26:31.483Z,1.30
2023-01-25T20:29:00.145Z,1.58
2023-01-25T20:31:29.920Z,1.27
2023-01-25T20:34:02.457Z,1.50
2023-01-25T20:36:33.615Z,1.42
2023-01-25T20:39:00.751Z,1.70
2023-01-25T20:41:28.062Z,1.45
2023-01-25T20:44:10.308Z,2.33
2023-01-25T20:46:39.044Z,1.90
2023-01-25T20:49:25.537Z,1.60
2023-01-25T20:51:52.667Z,1.85
2023-01-25T20:54:21.477Z,1.70
2023-01-25T20:56:48.850Z,1.80
2023-01-25T20:59:17.899Z,1.60
2023-01-25T21:01:45.264Z,2.00
2023-01-25T21:04:12.420Z,1.67
2023-01-25T21:06:39.484Z,1.30
2023-01-25T21:09:07.135Z,1.83
2023-01-25T21:11:34.842Z,2.00
2023-01-25T21:14:02.032Z,1.80
2023-01-25T21:16:29.442Z,1.75
2023-01-25T21:18:58.368Z,2.35
2023-01-25T21:21:30.430Z,1.90
2023-01-25T21:24:00.460Z,1.80
2023-01-25T21:26:36.028Z,1.50
2023-01-25T21:29:03.966Z,1.58
2023-01-25T21:31:36.799Z,1.70
2023-01-25T21:34:05.515Z,1.90
2023-01-25T21:36:32.812Z,1.50
2023-01-25T21:39:00.379Z,1.70
2023-01-25T21:41:30.526Z,1.50
2023-01-25T21:44:17.637Z,1.33
2023-01-25T21:47:04.207Z,1.65
2023-01-25T21:49:50.935Z,2.08
2023-01-25T21:52:18.011Z,1.20
2023-01-25T21:54:45.043Z,1.25
2023-01-25T21:57:12.146Z,1.55
2023-01-25T21:59:41.122Z,1.65
2023-01-25T22:02:12.673Z,1.52
2023-01-25T22:04:39.737Z,1.40
2023-01-25T22:07:08.893Z,1.55
2023-01-25T22:09:36.093Z,1.88
2023-01-25T22:12:03.165Z,1.92
2023-01-25T22:14:30.666Z,1.65
2023-01-25T22:16:58.321Z,1.73
2023-01-25T22:19:25.471Z,1.30
2023-01-25T22:21:52.643Z,1.80
2023-01-25T22:24:19.747Z,1.50
2023-01-25T22:26:49.578Z,1.35
2023-01-25T22:29:16.925Z,1.88
2023-01-25T22:31:44.122Z,1.70
2023-01-25T22:34:11.543Z,1.77
2023-01-25T22:36:38.637Z,1.30
2023-01-25T22:39:05.704Z,1.70
2023-01-25T22:41:36.086Z,1.55
2023-01-25T22:44:03.452Z,1.50
2023-01-25T22:46:30.935Z,1.55
2023-01-25T22:48:58.946Z,2.00
2023-01-25T22:51:29.130Z,1.83
2023-01-25T22:53:57.724Z,1.50
2023-01-25T22:56:32.088Z,1.60
2023-01-25T22:59:00.315Z,1.77
2023-01-25T23:01:30.524Z,1.40
2023-01-25T23:03:57.919Z,1.35
2023-01-25T23:06:27.516Z,1.90
2023-01-25T23:08:56.476Z,1.42
2023-01-25T23:11:25.133Z,1.42
2023-01-25T23:14:13.505Z,1.50
2023-01-25T23:16:40.543Z,1.50
2023-01-25T23:19:10.455Z,1.77
2023-01-25T23:21:37.638Z,1.45
2023-01-25T23:24:05.298Z,1.60
2023-01-25T23:26:37.930Z,1.45
2023-01-25T23:29:11.151Z,1.67
2023-01-25T23:31:38.529Z,1.65
2023-01-25T23:34:06.857Z,1.30
2023-01-25T23:36:36.228Z,1.30
2023-01-25T23:39:03.874Z,1.45
2023-01-25T23:41:31.831Z,1.15
2023-01-25T23:43:59.877Z,1.20
2023-01-25T23:46:28.671Z,1.20
2023-01-25T23:48:56.278Z,1.35
2023-01-25T23:51:24.401Z,1.30
2023-01-25T23:53:53.661Z,1.17
2023-01-25T23:56:22.093Z,1.20
2023-01-25T23:58:49.581Z,1.40
